sensor_id;sensor_type;location;lat;lon;timestamp;pressure;altitude;pressure_sealevel;temperature;humidity
73085;BME280;62974;49.460;10.892;2023-05-03T00:00:47;98654.22;;;9.73;85.57
73085;BME280;62974;49.460;10.892;2023-05-03T00:03:16;98667.75;;;9.33;87.15
73085;BME280;62974;49.460;10.892;2023-05-03T00:05:49;98663.59;;;9.22;86.33
73085;BME280;62974;49.460;10.892;2023-05-03T00:08:17;98661.97;;;9.60;84.77
73085;BME280;62974;49.460;10.892;2023-05-03T00:10:44;98669.06;;;8.08;92.90
73085;BME280;62974;49.460;10.892;2023-05-03T00:13:12;98663.78;;;9.13;90.26
73085;BME280;62974;49.460;10.892;2023-05-03T00:15:39;98654.25;;;9.65;84.74
73085;BME280;62974;49.460;10.892;2023-05-03T00:18:07;98654.16;;;9.51;85.36
73085;BME280;62974;49.460;10.892;2023-05-03T00:20:36;98648.69;;;9.75;83.07
73085;BME280;62974;49.460;10.892;2023-05-03T00:23:03;98647.50;;;9.77;82.81
73085;BME280;62974;49.460;10.892;2023-05-03T00:25:30;98642.63;;;9.81;81.99
73085;BME280;62974;49.460;10.892;2023-05-03T00:27:58;98651.72;;;9.72;82.18
73085;BME280;62974;49.460;10.892;2023-05-03T00:30:25;98650.34;;;9.76;81.56
73085;BME280;62974;49.460;10.892;2023-05-03T00:32:53;98641.78;;;9.80;81.47
73085;BME280;62974;49.460;10.892;2023-05-03T00:35:21;98643.31;;;9.83;80.72
73085;BME280;62974;49.460;10.892;2023-05-03T00:37:49;98642.97;;;9.78;81.20
73085;BME280;62974;49.460;10.892;2023-05-03T00:40:17;98627.72;;;9.78;80.34
73085;BME280;62974;49.460;10.892;2023-05-03T00:42:45;98630.09;;;9.73;80.08
73085;BME280;62974;49.460;10.892;2023-05-03T00:45:12;98643.19;;;9.68;80.42
73085;BME280;62974;49.460;10.892;2023-05-03T00:47:40;98630.81;;;9.67;80.84
73085;BME280;62974;49.460;10.892;2023-05-03T00:50:08;98641.69;;;9.66;80.33
73085;BME280;62974;49.460;10.892;2023-05-03T00:52:37;98639.53;;;9.61;80.19
73085;BME280;62974;49.460;10.892;2023-05-03T00:55:08;98638.69;;;9.61;80.52
73085;BME280;62974;49.460;10.892;2023-05-03T00:57:36;98637.19;;;9.58;80.28
73085;BME280;62974;49.460;10.892;2023-05-03T01:00:05;98634.88;;;9.55;79.91
73085;BME280;62974;49.460;10.892;2023-05-03T01:02:34;98627.16;;;9.52;80.08
73085;BME280;62974;49.460;10.892;2023-05-03T01:05:03;98630.34;;;9.48;79.69
73085;BME280;62974;49.460;10.892;2023-05-03T01:07:39;98629.34;;;9.49;79.56
73085;BME280;62974;49.460;10.892;2023-05-03T01:10:19;98645.06;;;8.80;82.76
73085;BME280;62974;49.460;10.892;2023-05-03T01:12:54;98630.56;;;9.38;80.58
73085;BME280;62974;49.460;10.892;2023-05-03T01:15:32;98624.84;;;9.41;79.75
73085;BME280;62974;49.460;10.892;2023-05-03T01:18:11;98623.16;;;9.40;79.53
73085;BME280;62974;49.460;10.892;2023-05-03T01:20:43;98627.56;;;9.33;79.82
73085;BME280;62974;49.460;10.892;2023-05-03T01:23:16;98623.91;;;9.26;79.34
73085;BME280;62974;49.460;10.892;2023-05-03T01:25:51;98617.69;;;9.33;79.60
73085;BME280;62974;49.460;10.892;2023-05-03T01:28:19;98619.50;;;9.33;79.65
73085;BME280;62974;49.460;10.892;2023-05-03T01:30:49;98620.56;;;9.16;79.53
73085;BME280;62974;49.460;10.892;2023-05-03T01:33:25;98614.56;;;9.14;79.33
73085;BME280;62974;49.460;10.892;2023-05-03T01:35:59;98618.56;;;9.18;79.02
73085;BME280;62974;49.460;10.892;2023-05-03T01:38:31;98627.47;;;9.10;79.17
73085;BME280;62974;49.460;10.892;2023-05-03T01:41:05;98616.88;;;9.17;78.78
73085;BME280;62974;49.460;10.892;2023-05-03T01:43:35;98621.41;;;9.16;78.73
73085;BME280;62974;49.460;10.892;2023-05-03T01:46:04;98624.44;;;9.05;78.85
73085;BME280;62974;49.460;10.892;2023-05-03T01:48:32;98622.97;;;9.03;78.97
73085;BME280;62974;49.460;10.892;2023-05-03T01:50:59;98624.44;;;9.05;79.26
73085;BME280;62974;49.460;10.892;2023-05-03T01:53:27;98619.44;;;9.02;79.33
73085;BME280;62974;49.460;10.892;2023-05-03T01:55:54;98621.13;;;9.03;78.90
73085;BME280;62974;49.460;10.892;2023-05-03T01:58:23;98627.00;;;8.90;78.89
73085;BME280;62974;49.460;10.892;2023-05-03T02:00:50;98626.16;;;8.90;79.01
73085;BME280;62974;49.460;10.892;2023-05-03T02:03:18;98624.81;;;8.94;78.92
73085;BME280;62974;49.460;10.892;2023-05-03T02:05:46;98628.00;;;8.89;78.94
73085;BME280;62974;49.460;10.892;2023-05-03T02:08:14;98627.84;;;8.83;78.71
73085;BME280;62974;49.460;10.892;2023-05-03T02:10:42;98627.34;;;8.79;78.85
73085;BME280;62974;49.460;10.892;2023-05-03T02:13:10;98623.31;;;8.83;78.92
73085;BME280;62974;49.460;10.892;2023-05-03T02:15:39;98626.81;;;8.84;78.84
73085;BME280;62974;49.460;10.892;2023-05-03T02:18:06;98628.84;;;8.74;78.90
73085;BME280;62974;49.460;10.892;2023-05-03T02:20:34;98628.34;;;8.70;78.33
73085;BME280;62974;49.460;10.892;2023-05-03T02:23:03;98624.69;;;8.63;78.56
73085;BME280;62974;49.460;10.892;2023-05-03T02:25:31;98626.31;;;8.72;78.44
73085;BME280;62974;49.460;10.892;2023-05-03T02:27:58;98632.03;;;8.69;78.66
73085;BME280;62974;49.460;10.892;2023-05-03T02:30:26;98625.31;;;8.65;78.48
73085;BME280;62974;49.460;10.892;2023-05-03T02:32:55;98627.34;;;8.71;78.85
73085;BME280;62974;49.460;10.892;2023-05-03T02:35:22;98624.34;;;8.66;78.60
73085;BME280;62974;49.460;10.892;2023-05-03T02:37:50;98617.97;;;8.59;78.50
73085;BME280;62974;49.460;10.892;2023-05-03T02:40:17;98617.28;;;8.49;78.02
73085;BME280;62974;49.460;10.892;2023-05-03T02:42:45;98622.00;;;8.47;78.87
73085;BME280;62974;49.460;10.892;2023-05-03T02:45:12;98612.63;;;8.51;77.80
73085;BME280;62974;49.460;10.892;2023-05-03T02:47:40;98625.66;;;8.54;78.45
73085;BME280;62974;49.460;10.892;2023-05-03T02:50:09;98619.47;;;8.45;78.05
73085;BME280;62974;49.460;10.892;2023-05-03T02:52:36;98620.16;;;8.39;78.32
73085;BME280;62974;49.460;10.892;2023-05-03T02:55:05;98613.97;;;8.39;78.63
73085;BME280;62974;49.460;10.892;2023-05-03T02:57:32;98620.31;;;8.38;78.05
73085;BME280;62974;49.460;10.892;2023-05-03T03:00:00;98633.19;;;8.42;78.72
73085;BME280;62974;49.460;10.892;2023-05-03T03:02:28;98629.69;;;8.50;78.12
73085;BME280;62974;49.460;10.892;2023-05-03T03:04:55;98624.66;;;8.39;78.13
73085;BME280;62974;49.460;10.892;2023-05-03T03:07:24;98626.00;;;8.35;77.69
73085;BME280;62974;49.460;10.892;2023-05-03T03:09:52;98624.78;;;8.21;78.21
73085;BME280;62974;49.460;10.892;2023-05-03T03:12:19;98628.78;;;8.25;78.62
73085;BME280;62974;49.460;10.892;2023-05-03T03:14:47;98615.94;;;8.29;77.95
73085;BME280;62974;49.460;10.892;2023-05-03T03:17:14;98625.16;;;8.42;78.24
73085;BME280;62974;49.460;10.892;2023-05-03T03:19:42;98624.28;;;8.18;78.05
73085;BME280;62974;49.460;10.892;2023-05-03T03:22:09;98626.44;;;8.14;78.32
73085;BME280;62974;49.460;10.892;2023-05-03T03:24:38;98630.09;;;8.13;78.39
73085;BME280;62974;49.460;10.892;2023-05-03T03:27:06;98630.31;;;8.20;77.87
73085;BME280;62974;49.460;10.892;2023-05-03T03:29:34;98625.94;;;8.19;78.08
73085;BME280;62974;49.460;10.892;2023-05-03T03:32:01;98629.97;;;8.15;77.89
73085;BME280;62974;49.460;10.892;2023-05-03T03:34:29;98629.59;;;8.10;78.38
73085;BME280;62974;49.460;10.892;2023-05-03T03:36:57;98624.09;;;8.11;77.94
73085;BME280;62974;49.460;10.892;2023-05-03T03:39:25;98628.75;;;8.01;77.47
73085;BME280;62974;49.460;10.892;2023-05-03T03:41:53;98637.25;;;7.96;77.91
73085;BME280;62974;49.460;10.892;2023-05-03T03:44:21;98640.78;;;8.05;77.97
73085;BME280;62974;49.460;10.892;2023-05-03T03:46:48;98637.47;;;8.03;78.00
73085;BME280;62974;49.460;10.892;2023-05-03T03:49:16;98642.78;;;7.95;77.85
73085;BME280;62974;49.460;10.892;2023-05-03T03:51:43;98641.91;;;7.86;78.25
73085;BME280;62974;49.460;10.892;2023-05-03T03:54:11;98646.78;;;7.91;78.46
73085;BME280;62974;49.460;10.892;2023-05-03T03:56:38;98640.75;;;7.89;78.42
73085;BME280;62974;49.460;10.892;2023-05-03T03:59:07;98641.28;;;8.00;78.14
73085;BME280;62974;49.460;10.892;2023-05-03T04:01:34;98654.50;;;8.02;78.07
73085;BME280;62974;49.460;10.892;2023-05-03T04:04:03;98651.16;;;7.92;77.91
73085;BME280;62974;49.460;10.892;2023-05-03T04:06:31;98656.31;;;7.93;78.00
73085;BME280;62974;49.460;10.892;2023-05-03T04:08:58;98653.44;;;7.79;78.08
73085;BME280;62974;49.460;10.892;2023-05-03T04:11:26;98653.97;;;7.90;77.85
73085;BME280;62974;49.460;10.892;2023-05-03T04:13:53;98655.16;;;7.88;77.95
73085;BME280;62974;49.460;10.892;2023-05-03T04:16:22;98655.16;;;7.88;77.83
73085;BME280;62974;49.460;10.892;2023-05-03T04:18:49;98661.13;;;7.82;78.06
73085;BME280;62974;49.460;10.892;2023-05-03T04:21:17;98668.66;;;7.86;78.23
73085;BME280;62974;49.460;10.892;2023-05-03T04:23:45;98668.69;;;7.94;77.89
73085;BME280;62974;49.460;10.892;2023-05-03T04:26:12;98675.38;;;7.90;78.04
73085;BME280;62974;49.460;10.892;2023-05-03T04:28:56;98677.84;;;7.84;78.13
73085;BME280;62974;49.460;10.892;2023-05-03T04:31:25;98676.00;;;7.84;77.77
73085;BME280;62974;49.460;10.892;2023-05-03T04:33:53;98681.69;;;7.89;78.37
73085;BME280;62974;49.460;10.892;2023-05-03T04:36:21;98685.22;;;7.90;78.48
73085;BME280;62974;49.460;10.892;2023-05-03T04:38:51;98703.56;;;7.85;79.76
73085;BME280;62974;49.460;10.892;2023-05-03T04:41:18;98712.91;;;7.21;82.41
73085;BME280;62974;49.460;10.892;2023-05-03T04:43:46;98740.16;;;6.01;90.09
73085;BME280;62974;49.460;10.892;2023-05-03T04:46:13;98733.81;;;6.02;93.72
73085;BME280;62974;49.460;10.892;2023-05-03T04:48:43;98726.63;;;6.12;92.79
73085;BME280;62974;49.460;10.892;2023-05-03T04:51:11;98722.22;;;6.38;91.27
73085;BME280;62974;49.460;10.892;2023-05-03T04:53:38;98726.78;;;6.81;91.47
73085;BME280;62974;49.460;10.892;2023-05-03T04:56:06;98731.91;;;6.39;93.05
73085;BME280;62974;49.460;10.892;2023-05-03T04:58:34;98745.38;;;5.56;99.49
73085;BME280;62974;49.460;10.892;2023-05-03T05:01:02;98737.84;;;5.79;99.63
73085;BME280;62974;49.460;10.892;2023-05-03T05:03:30;98741.72;;;5.94;98.69
73085;BME280;62974;49.460;10.892;2023-05-03T05:05:59;98737.94;;;6.59;96.05
73085;BME280;62974;49.460;10.892;2023-05-03T05:08:26;98737.72;;;6.88;95.33
73085;BME280;62974;49.460;10.892;2023-05-03T05:10:54;98726.66;;;7.52;88.65
73085;BME280;62974;49.460;10.892;2023-05-03T05:13:21;98727.50;;;7.61;88.58
73085;BME280;62974;49.460;10.892;2023-05-03T05:15:49;98729.72;;;7.99;86.88
73085;BME280;62974;49.460;10.892;2023-05-03T05:18:16;98735.41;;;7.36;92.11
73085;BME280;62974;49.460;10.892;2023-05-03T05:20:44;98727.41;;;7.70;89.60
73085;BME280;62974;49.460;10.892;2023-05-03T05:23:13;98733.94;;;7.68;86.43
73085;BME280;62974;49.460;10.892;2023-05-03T05:25:41;98734.28;;;8.15;87.94
73085;BME280;62974;49.460;10.892;2023-05-03T05:28:09;98742.94;;;7.41;88.56
73085;BME280;62974;49.460;10.892;2023-05-03T05:30:36;98728.53;;;8.35;87.77
73085;BME280;62974;49.460;10.892;2023-05-03T05:33:04;98739.56;;;7.98;88.12
73085;BME280;62974;49.460;10.892;2023-05-03T05:35:32;98742.69;;;7.86;88.92
73085;BME280;62974;49.460;10.892;2023-05-03T05:38:00;98741.56;;;8.30;85.92
73085;BME280;62974;49.460;10.892;2023-05-03T05:40:29;98732.28;;;8.91;82.73
73085;BME280;62974;49.460;10.892;2023-05-03T05:42:56;98742.13;;;8.66;84.93
73085;BME280;62974;49.460;10.892;2023-05-03T05:45:24;98739.13;;;8.61;82.55
73085;BME280;62974;49.460;10.892;2023-05-03T05:47:52;98747.53;;;7.82;86.20
73085;BME280;62974;49.460;10.892;2023-05-03T05:50:19;98737.47;;;9.01;83.03
73085;BME280;62974;49.460;10.892;2023-05-03T05:52:50;98737.28;;;8.62;82.89
73085;BME280;62974;49.460;10.892;2023-05-03T05:55:18;98749.03;;;8.19;84.45
73085;BME280;62974;49.460;10.892;2023-05-03T05:57:47;98750.44;;;8.31;85.72
73085;BME280;62974;49.460;10.892;2023-05-03T06:00:15;98750.69;;;8.78;84.35
73085;BME280;62974;49.460;10.892;2023-05-03T06:02:44;98743.94;;;8.49;84.36
73085;BME280;62974;49.460;10.892;2023-05-03T06:05:12;98753.53;;;7.76;86.09
73085;BME280;62974;49.460;10.892;2023-05-03T06:07:39;98762.84;;;7.46;87.31
73085;BME280;62974;49.460;10.892;2023-05-03T06:10:07;98756.47;;;8.41;84.93
73085;BME280;62974;49.460;10.892;2023-05-03T06:12:35;98755.47;;;7.40;87.04
73085;BME280;62974;49.460;10.892;2023-05-03T06:15:05;98760.16;;;7.21;89.55
73085;BME280;62974;49.460;10.892;2023-05-03T06:17:33;98759.09;;;7.91;88.55
73085;BME280;62974;49.460;10.892;2023-05-03T06:20:01;98755.69;;;8.15;85.89
73085;BME280;62974;49.460;10.892;2023-05-03T06:22:30;98753.31;;;7.70;87.96
73085;BME280;62974;49.460;10.892;2023-05-03T06:24:57;98762.81;;;7.21;89.50
73085;BME280;62974;49.460;10.892;2023-05-03T06:27:25;98759.03;;;7.23;90.20
73085;BME280;62974;49.460;10.892;2023-05-03T06:29:52;98758.69;;;7.44;90.33
73085;BME280;62974;49.460;10.892;2023-05-03T06:32:22;98752.69;;;7.50;88.07
73085;BME280;62974;49.460;10.892;2023-05-03T06:34:49;98751.84;;;8.17;86.62
73085;BME280;62974;49.460;10.892;2023-05-03T06:37:18;98756.53;;;8.15;85.93
73085;BME280;62974;49.460;10.892;2023-05-03T06:39:45;98755.03;;;7.53;89.22
73085;BME280;62974;49.460;10.892;2023-05-03T06:42:13;98767.75;;;7.85;89.70
73085;BME280;62974;49.460;10.892;2023-05-03T06:44:40;98761.53;;;8.10;87.66
73085;BME280;62974;49.460;10.892;2023-05-03T06:47:08;98749.00;;;8.11;84.60
73085;BME280;62974;49.460;10.892;2023-05-03T06:49:37;98753.31;;;7.70;84.62
73085;BME280;62974;49.460;10.892;2023-05-03T06:52:04;98755.97;;;7.70;87.00
73085;BME280;62974;49.460;10.892;2023-05-03T06:54:36;98755.03;;;7.79;85.37
73085;BME280;62974;49.460;10.892;2023-05-03T06:57:03;98750.47;;;7.71;85.78
73085;BME280;62974;49.460;10.892;2023-05-03T06:59:31;98744.53;;;8.27;85.05
73085;BME280;62974;49.460;10.892;2023-05-03T07:01:58;98740.59;;;8.06;85.37
73085;BME280;62974;49.460;10.892;2023-05-03T07:04:26;98749.34;;;7.82;85.44
73085;BME280;62974;49.460;10.892;2023-05-03T07:06:56;98743.59;;;8.44;84.79
73085;BME280;62974;49.460;10.892;2023-05-03T07:09:24;98745.59;;;8.34;84.19
73085;BME280;62974;49.460;10.892;2023-05-03T07:12:08;98745.16;;;8.21;83.89
73085;BME280;62974;49.460;10.892;2023-05-03T07:14:37;98740.78;;;8.54;83.85
73085;BME280;62974;49.460;10.892;2023-05-03T07:17:05;98742.25;;;7.65;85.92
73085;BME280;62974;49.460;10.892;2023-05-03T07:19:32;98733.91;;;8.43;84.21
73085;BME280;62974;49.460;10.892;2023-05-03T07:22:01;98728.03;;;8.48;83.97
73085;BME280;62974;49.460;10.892;2023-05-03T07:24:28;98732.91;;;8.02;84.10
73085;BME280;62974;49.460;10.892;2023-05-03T07:26:56;98728.59;;;8.60;83.61
73085;BME280;62974;49.460;10.892;2023-05-03T07:29:24;98724.34;;;8.41;83.26
73085;BME280;62974;49.460;10.892;2023-05-03T07:31:52;98721.56;;;8.83;82.68
73085;BME280;62974;49.460;10.892;2023-05-03T07:34:20;98723.53;;;8.57;84.29
73085;BME280;62974;49.460;10.892;2023-05-03T07:36:47;98711.66;;;9.16;82.76
73085;BME280;62974;49.460;10.892;2023-05-03T07:39:16;98710.97;;;9.46;81.53
73085;BME280;62974;49.460;10.892;2023-05-03T07:41:44;98713.78;;;9.53;80.10
73085;BME280;62974;49.460;10.892;2023-05-03T07:44:12;98709.78;;;9.40;79.98
73085;BME280;62974;49.460;10.892;2023-05-03T07:46:39;98702.03;;;9.70;79.93
73085;BME280;62974;49.460;10.892;2023-05-03T07:49:07;98707.84;;;9.18;79.43
73085;BME280;62974;49.460;10.892;2023-05-03T07:51:34;98710.84;;;9.31;81.16
73085;BME280;62974;49.460;10.892;2023-05-03T07:54:02;98702.53;;;9.65;81.37
73085;BME280;62974;49.460;10.892;2023-05-03T07:56:31;98697.72;;;9.91;80.16
73085;BME280;62974;49.460;10.892;2023-05-03T07:58:59;98684.22;;;10.16;77.73
73085;BME280;62974;49.460;10.892;2023-05-03T08:01:29;98680.03;;;10.21;78.30
73085;BME280;62974;49.460;10.892;2023-05-03T08:03:57;98684.75;;;10.42;77.37
73085;BME280;62974;49.460;10.892;2023-05-03T08:06:25;98684.59;;;10.66;76.55
73085;BME280;62974;49.460;10.892;2023-05-03T08:08:53;98678.06;;;10.61;76.17
73085;BME280;62974;49.460;10.892;2023-05-03T08:11:21;98685.41;;;10.44;76.51
73085;BME280;62974;49.460;10.892;2023-05-03T08:13:50;98677.81;;;10.25;76.88
73085;BME280;62974;49.460;10.892;2023-05-03T08:16:17;98680.19;;;10.12;76.31
73085;BME280;62974;49.460;10.892;2023-05-03T08:18:45;98673.66;;;10.91;75.51
73085;BME280;62974;49.460;10.892;2023-05-03T08:21:13;98681.78;;;10.60;75.81
73085;BME280;62974;49.460;10.892;2023-05-03T08:23:42;98679.66;;;10.93;74.99
73085;BME280;62974;49.460;10.892;2023-05-03T08:26:10;98681.25;;;10.64;75.35
73085;BME280;62974;49.460;10.892;2023-05-03T08:28:39;98678.06;;;11.06;74.07
73085;BME280;62974;49.460;10.892;2023-05-03T08:31:08;98675.78;;;10.95;73.64
73085;BME280;62974;49.460;10.892;2023-05-03T08:33:36;98671.06;;;11.49;72.73
73085;BME280;62974;49.460;10.892;2023-05-03T08:36:04;98671.84;;;11.20;72.14
73085;BME280;62974;49.460;10.892;2023-05-03T08:38:32;98677.81;;;11.45;73.34
73085;BME280;62974;49.460;10.892;2023-05-03T08:41:14;98667.72;;;11.62;73.03
73085;BME280;62974;49.460;10.892;2023-05-03T08:43:44;98669.38;;;11.63;73.11
73085;BME280;62974;49.460;10.892;2023-05-03T08:46:13;98665.47;;;11.51;71.93
73085;BME280;62974;49.460;10.892;2023-05-03T08:48:42;98673.38;;;11.38;72.42
73085;BME280;62974;49.460;10.892;2023-05-03T08:51:09;98671.59;;;11.30;72.07
73085;BME280;62974;49.460;10.892;2023-05-03T08:53:37;98671.91;;;11.79;71.48
73085;BME280;62974;49.460;10.892;2023-05-03T08:56:06;98679.09;;;11.35;71.92
73085;BME280;62974;49.460;10.892;2023-05-03T08:58:34;98677.22;;;11.72;71.24
73085;BME280;62974;49.460;10.892;2023-05-03T09:01:03;98678.59;;;11.54;71.08
73085;BME280;62974;49.460;10.892;2023-05-03T09:03:33;98678.97;;;11.80;70.02
73085;BME280;62974;49.460;10.892;2023-05-03T09:06:02;98666.13;;;11.67;69.20
73085;BME280;62974;49.460;10.892;2023-05-03T09:08:29;98677.69;;;11.24;70.80
73085;BME280;62974;49.460;10.892;2023-05-03T09:10:57;98675.78;;;11.47;70.21
73085;BME280;62974;49.460;10.892;2023-05-03T09:13:29;98683.44;;;11.06;72.32
73085;BME280;62974;49.460;10.892;2023-05-03T09:15:57;98682.28;;;11.38;71.67
73085;BME280;62974;49.460;10.892;2023-05-03T09:18:24;98675.16;;;11.74;70.27
73085;BME280;62974;49.460;10.892;2023-05-03T09:20:53;98676.72;;;11.84;70.53
73085;BME280;62974;49.460;10.892;2023-05-03T09:23:30;98675.88;;;12.48;69.36
73085;BME280;62974;49.460;10.892;2023-05-03T09:25:58;98669.94;;;12.38;68.06
73085;BME280;62974;49.460;10.892;2023-05-03T09:28:26;98678.66;;;12.04;67.86
73085;BME280;62974;49.460;10.892;2023-05-03T09:31:03;98673.63;;;12.16;67.93
73085;BME280;62974;49.460;10.892;2023-05-03T09:33:32;98675.06;;;12.69;68.42
73085;BME280;62974;49.460;10.892;2023-05-03T09:36:02;98671.44;;;12.41;66.40
73085;BME280;62974;49.460;10.892;2023-05-03T09:38:32;98675.06;;;12.69;69.77
73085;BME280;62974;49.460;10.892;2023-05-03T09:41:02;98674.56;;;12.44;67.58
73085;BME280;62974;49.460;10.892;2023-05-03T09:43:31;98672.25;;;13.26;68.60
73085;BME280;62974;49.460;10.892;2023-05-03T09:46:07;98672.50;;;13.31;67.44
73085;BME280;62974;49.460;10.892;2023-05-03T09:48:35;98671.22;;;13.06;67.62
73085;BME280;62974;49.460;10.892;2023-05-03T09:51:05;98665.47;;;12.88;66.20
73085;BME280;62974;49.460;10.892;2023-05-03T09:53:33;98662.91;;;13.01;66.28
73085;BME280;62974;49.460;10.892;2023-05-03T09:56:03;98658.75;;;13.26;65.84
73085;BME280;62974;49.460;10.892;2023-05-03T09:58:32;98664.59;;;13.57;67.45
73085;BME280;62974;49.460;10.892;2023-05-03T10:01:01;98665.56;;;13.22;68.24
73085;BME280;62974;49.460;10.892;2023-05-03T10:03:33;98670.31;;;13.13;66.11
73085;BME280;62974;49.460;10.892;2023-05-03T10:06:11;98662.09;;;13.07;65.77
73085;BME280;62974;49.460;10.892;2023-05-03T10:08:48;98654.41;;;13.04;63.30
73085;BME280;62974;49.460;10.892;2023-05-03T10:11:18;98647.19;;;13.67;63.92
73085;BME280;62974;49.460;10.892;2023-05-03T10:13:46;98641.94;;;13.24;62.37
73085;BME280;62974;49.460;10.892;2023-05-03T10:16:17;98646.22;;;13.40;63.39
73085;BME280;62974;49.460;10.892;2023-05-03T10:18:52;98643.84;;;13.30;64.86
73085;BME280;62974;49.460;10.892;2023-05-03T10:21:31;98645.59;;;12.67;64.04
73085;BME280;62974;49.460;10.892;2023-05-03T10:24:09;98635.81;;;13.37;64.29
73085;BME280;62974;49.460;10.892;2023-05-03T10:26:41;98632.44;;;12.79;64.84
73085;BME280;62974;49.460;10.892;2023-05-03T10:29:47;98623.56;;;13.69;63.75
73085;BME280;62974;49.460;10.892;2023-05-03T10:32:30;98627.00;;;13.97;64.66
73085;BME280;62974;49.460;10.892;2023-05-03T10:35:00;98625.97;;;13.57;61.82
73085;BME280;62974;49.460;10.892;2023-05-03T10:37:31;98628.34;;;13.39;66.70
73085;BME280;62974;49.460;10.892;2023-05-03T10:40:10;98614.31;;;13.97;62.79
73085;BME280;62974;49.460;10.892;2023-05-03T10:42:42;98615.84;;;14.13;61.66
73085;BME280;62974;49.460;10.892;2023-05-03T10:45:19;98627.88;;;13.63;63.29
73085;BME280;62974;49.460;10.892;2023-05-03T10:48:16;98626.44;;;13.67;62.35
73085;BME280;62974;49.460;10.892;2023-05-03T10:50:46;98632.91;;;13.38;62.63
73085;BME280;62974;49.460;10.892;2023-05-03T10:53:34;98623.66;;;13.88;64.42
73085;BME280;62974;49.460;10.892;2023-05-03T10:56:02;98618.31;;;14.08;63.36
73085;BME280;62974;49.460;10.892;2023-05-03T10:58:35;98614.50;;;14.37;60.81
73085;BME280;62974;49.460;10.892;2023-05-03T11:01:04;98616.22;;;13.97;62.88
73085;BME280;62974;49.460;10.892;2023-05-03T11:03:48;98624.16;;;13.64;63.97
73085;BME280;62974;49.460;10.892;2023-05-03T11:06:31;98623.16;;;13.78;64.40
73085;BME280;62974;49.460;10.892;2023-05-03T11:09:03;98613.25;;;14.46;62.22
73085;BME280;62974;49.460;10.892;2023-05-03T11:11:31;98611.00;;;15.15;61.27
73085;BME280;62974;49.460;10.892;2023-05-03T11:13:59;98602.03;;;14.62;61.31
73085;BME280;62974;49.460;10.892;2023-05-03T11:16:27;98597.13;;;14.05;60.20
73085;BME280;62974;49.460;10.892;2023-05-03T11:18:54;98605.66;;;14.15;61.44
73085;BME280;62974;49.460;10.892;2023-05-03T11:21:22;98594.53;;;14.44;58.85
73085;BME280;62974;49.460;10.892;2023-05-03T11:23:50;98592.06;;;14.56;60.51
73085;BME280;62974;49.460;10.892;2023-05-03T11:26:19;98591.09;;;14.09;59.16
73085;BME280;62974;49.460;10.892;2023-05-03T11:28:52;98594.47;;;14.25;59.73
73085;BME280;62974;49.460;10.892;2023-05-03T11:31:20;98598.50;;;14.55;60.66
73085;BME280;62974;49.460;10.892;2023-05-03T11:33:48;98595.50;;;14.17;59.80
73085;BME280;62974;49.460;10.892;2023-05-03T11:36:16;98586.84;;;14.48;59.01
73085;BME280;62974;49.460;10.892;2023-05-03T11:38:44;98592.38;;;14.20;57.93
73085;BME280;62974;49.460;10.892;2023-05-03T11:41:13;98585.69;;;14.09;58.40
73085;BME280;62974;49.460;10.892;2023-05-03T11:43:44;98589.03;;;14.18;59.93
73085;BME280;62974;49.460;10.892;2023-05-03T11:46:14;98573.34;;;14.68;57.34
73085;BME280;62974;49.460;10.892;2023-05-03T11:48:44;98584.16;;;14.94;59.06
73085;BME280;62974;49.460;10.892;2023-05-03T11:51:11;98572.72;;;14.92;57.73
73085;BME280;62974;49.460;10.892;2023-05-03T11:53:40;98579.13;;;15.30;57.16
73085;BME280;62974;49.460;10.892;2023-05-03T11:56:11;98580.81;;;14.98;54.69
73085;BME280;62974;49.460;10.892;2023-05-03T11:58:52;98590.81;;;15.11;56.64
73085;BME280;62974;49.460;10.892;2023-05-03T12:01:23;98597.91;;;14.92;56.79
73085;BME280;62974;49.460;10.892;2023-05-03T12:03:52;98593.91;;;15.21;56.50
73085;BME280;62974;49.460;10.892;2023-05-03T12:06:21;98594.13;;;14.93;54.80
73085;BME280;62974;49.460;10.892;2023-05-03T12:08:49;98589.78;;;15.12;54.29
73085;BME280;62974;49.460;10.892;2023-05-03T12:11:17;98599.97;;;14.97;56.87
73085;BME280;62974;49.460;10.892;2023-05-03T12:13:56;98608.28;;;14.63;58.46
73085;BME280;62974;49.460;10.892;2023-05-03T12:16:25;98590.19;;;14.63;56.19
73085;BME280;62974;49.460;10.892;2023-05-03T12:18:53;98585.59;;;15.10;55.27
73085;BME280;62974;49.460;10.892;2023-05-03T12:21:24;98564.72;;;15.49;53.37
73085;BME280;62974;49.460;10.892;2023-05-03T12:23:54;98581.81;;;16.08;56.73
73085;BME280;62974;49.460;10.892;2023-05-03T12:26:23;98579.03;;;15.70;55.29
73085;BME280;62974;49.460;10.892;2023-05-03T12:28:51;98583.69;;;16.07;55.70
73085;BME280;62974;49.460;10.892;2023-05-03T12:31:23;98578.31;;;15.23;55.33
73085;BME280;62974;49.460;10.892;2023-05-03T12:33:54;98579.84;;;15.77;55.60
73085;BME280;62974;49.460;10.892;2023-05-03T12:36:42;98569.16;;;15.95;53.77
73085;BME280;62974;49.460;10.892;2023-05-03T12:39:12;98574.81;;;14.83;53.78
73085;BME280;62974;49.460;10.892;2023-05-03T12:41:41;98575.22;;;14.87;54.90
73085;BME280;62974;49.460;10.892;2023-05-03T12:44:12;98576.44;;;14.97;54.34
73085;BME280;62974;49.460;10.892;2023-05-03T12:46:44;98560.81;;;15.32;50.92
73085;BME280;62974;49.460;10.892;2023-05-03T12:49:11;98557.69;;;15.35;52.04
73085;BME280;62974;49.460;10.892;2023-05-03T12:51:41;98565.28;;;15.65;53.68
73085;BME280;62974;49.460;10.892;2023-05-03T12:54:09;98560.50;;;15.67;53.01
73085;BME280;62974;49.460;10.892;2023-05-03T12:56:37;98561.38;;;15.47;50.91
73085;BME280;62974;49.460;10.892;2023-05-03T12:59:06;98559.84;;;15.84;52.35
73085;BME280;62974;49.460;10.892;2023-05-03T13:01:37;98553.28;;;15.41;51.64
73085;BME280;62974;49.460;10.892;2023-05-03T13:04:09;98542.44;;;15.54;48.78
73085;BME280;62974;49.460;10.892;2023-05-03T13:06:40;98543.63;;;15.71;48.03